PWSweather.com
Personal Weather Stations
Station Observations
RAINMAN1
Jacksonville, FL 32224

Jacksonville, FL 32224

Lat: 30.28041649, Lon: -81.46911621

Elevation: 26

Station Type: Tycon TP1080WC

Latest ConditionsUpdated 3:55:02 PM EST Tuesday, Jan 27, 2015
Currently Today's Max Today's Min Today's Average
Temperature 67.3°F19.6°C 68.0°F20.0°C 37.9°F3.3°C 50.0°F10.0°C
Dew Point 42.8°F6.0°C 44.0°F6.7°C 36.9°F2.7°C 39.5°F4.2°C
Winds 11.7 mph WNW18.8 kmh WNW 15.8 mph NW25.4 kmh NW - 8.6 mph 13.8 kmh
Wind Gusts 18.3 mph29.5 kmh 28.9 mph46.5 kmh - -
Humidity 41% 98% 39% 70%
Pressure 29.55 in1000.7 mb 29.69 in1005.4 mb 29.54 in1000.3 mb -
Hour Temp Dew Point Humidity Winds Wind Gusts Pressure Precip Precip Rate Daily Precip Total
03:55 PM 67.3°F19.6°C 42.8°F6.0°C 41% 11.7 mph WNW18.8 kmh WNW 18.3 mph29.5 kmh 29.55 in1000.7 mb 0.00 in0.0 mm 0.00 in/hr0.0 mm/hr 0.00 in0.0 mm
03:50 PM 67.6°F19.8°C 41.8°F5.4°C 39% 11.1 mph NW17.9 kmh NW 18.3 mph29.5 kmh 29.56 in1001.0 mb 0.00 in0.0 mm 0.00 in/hr0.0 mm/hr 0.00 in0.0 mm
03:45 PM 67.3°F19.6°C 41.5°F5.3°C 39% 12.6 mph NW20.3 kmh NW 19.0 mph30.6 kmh 29.55 in1000.7 mb 0.00 in0.0 mm 0.00 in/hr0.0 mm/hr 0.00 in0.0 mm
03:40 PM 66.7°F19.3°C 41.7°F5.4°C 40% 14.9 mph WNW24.0 kmh WNW 19.7 mph31.7 kmh 29.55 in1000.7 mb 0.00 in0.0 mm 0.00 in/hr0.0 mm/hr 0.00 in0.0 mm
03:35 PM 67.1°F19.5°C 42.0°F5.6°C 40% 13.6 mph NW21.9 kmh NW 19.7 mph31.7 kmh 29.55 in1000.7 mb 0.00 in0.0 mm 0.00 in/hr0.0 mm/hr 0.00 in0.0 mm
03:30 PM 67.8°F19.9°C 42.0°F5.6°C 39% 11.0 mph NW17.7 kmh NW 16.8 mph27.0 kmh 29.55 in1000.7 mb 0.00 in0.0 mm 0.00 in/hr0.0 mm/hr 0.00 in0.0 mm
03:25 PM 68.0°F20.0°C 42.1°F5.6°C 39% 11.7 mph NW18.8 kmh NW 18.3 mph29.5 kmh 29.55 in1000.7 mb 0.00 in0.0 mm 0.00 in/hr0.0 mm/hr 0.00 in0.0 mm
03:20 PM 67.8°F19.9°C 42.6°F5.9°C 40% 12.9 mph NW20.8 kmh NW 18.3 mph29.5 kmh 29.55 in1000.7 mb 0.00 in0.0 mm 0.00 in/hr0.0 mm/hr 0.00 in0.0 mm
03:15 PM 67.5°F19.7°C 42.3°F5.7°C 40% 11.7 mph NW18.8 kmh NW 18.3 mph29.5 kmh 29.54 in1000.3 mb 0.00 in0.0 mm 0.00 in/hr0.0 mm/hr 0.00 in0.0 mm
03:10 PM 67.1°F19.5°C 43.3°F6.3°C 42% 12.4 mph NW20.0 kmh NW 13.6 mph21.9 kmh 29.54 in1000.3 mb 0.00 in0.0 mm 0.00 in/hr0.0 mm/hr 0.00 in0.0 mm
03:05 PM 66.4°F19.1°C 42.6°F5.9°C 42% 12.9 mph NW20.8 kmh NW 15.9 mph25.6 kmh 29.55 in1000.7 mb 0.00 in0.0 mm 0.00 in/hr0.0 mm/hr 0.00 in0.0 mm
03:00 PM 66.4°F19.1°C 42.6°F5.9°C 42% 13.2 mph WNW21.2 kmh WNW 17.4 mph28.0 kmh 29.54 in1000.3 mb 0.00 in0.0 mm 0.00 in/hr0.0 mm/hr 0.00 in0.0 mm
02:55 PM 66.0°F18.9°C 42.3°F5.7°C 42% 12.6 mph WNW20.3 kmh WNW 17.4 mph28.0 kmh 29.55 in1000.7 mb 0.00 in0.0 mm 0.00 in/hr0.0 mm/hr 0.00 in0.0 mm
02:50 PM 66.4°F19.1°C 42.6°F5.9°C 42% 14.5 mph WNW23.3 kmh WNW 28.9 mph46.5 kmh 29.54 in1000.3 mb 0.00 in0.0 mm 0.00 in/hr0.0 mm/hr 0.00 in0.0 mm
02:45 PM 65.5°F18.6°C 43.0°F6.1°C 44% 13.4 mph WNW21.6 kmh WNW 28.9 mph46.5 kmh 29.55 in1000.7 mb 0.00 in0.0 mm 0.00 in/hr0.0 mm/hr 0.00 in0.0 mm
02:40 PM 66.6°F19.2°C 44.0°F6.7°C 44% 10.3 mph W16.6 kmh W 14.5 mph23.3 kmh 29.55 in1000.7 mb 0.00 in0.0 mm 0.00 in/hr0.0 mm/hr 0.00 in0.0 mm
02:35 PM 65.1°F18.4°C 43.3°F6.3°C 45% 12.8 mph W20.6 kmh W 15.9 mph25.6 kmh 29.55 in1000.7 mb 0.00 in0.0 mm 0.00 in/hr0.0 mm/hr 0.00 in0.0 mm
02:30 PM 64.6°F18.1°C 42.8°F6.0°C 45% 14.5 mph W23.3 kmh W 20.6 mph33.2 kmh 29.55 in1000.7 mb 0.00 in0.0 mm 0.00 in/hr0.0 mm/hr 0.00 in0.0 mm
02:25 PM 64.9°F18.3°C 42.5°F5.8°C 44% 12.3 mph W19.8 kmh W 20.6 mph33.2 kmh 29.55 in1000.7 mb 0.00 in0.0 mm 0.00 in/hr0.0 mm/hr 0.00 in0.0 mm
02:20 PM 65.5°F18.6°C 43.0°F6.1°C 44% 9.5 mph WNW15.3 kmh WNW 13.6 mph21.9 kmh 29.55 in1000.7 mb 0.00 in0.0 mm 0.00 in/hr0.0 mm/hr 0.00 in0.0 mm
02:15 PM 65.1°F18.4°C 43.3°F6.3°C 45% 11.0 mph NW17.7 kmh NW 13.6 mph21.9 kmh 29.56 in1001.0 mb 0.00 in0.0 mm 0.00 in/hr0.0 mm/hr 0.00 in0.0 mm
02:10 PM 64.4°F18.0°C 42.6°F5.9°C 45% 12.1 mph NW19.5 kmh NW 12.1 mph19.5 kmh 29.56 in1001.0 mb 0.00 in0.0 mm 0.00 in/hr0.0 mm/hr 0.00 in0.0 mm
02:05 PM 64.4°F18.0°C 42.6°F5.9°C 45% 11.5 mph WNW18.5 kmh WNW 13.6 mph21.9 kmh 29.57 in1001.4 mb 0.00 in0.0 mm 0.00 in/hr0.0 mm/hr 0.00 in0.0 mm
02:00 PM 64.4°F18.0°C 42.6°F5.9°C 45% 11.1 mph WNW17.9 kmh WNW 15.2 mph24.5 kmh 29.57 in1001.4 mb 0.00 in0.0 mm 0.00 in/hr0.0 mm/hr 0.00 in0.0 mm
01:55 PM 64.0°F17.8°C 42.9°F6.1°C 46% 11.4 mph NW18.3 kmh NW 15.9 mph25.6 kmh 29.57 in1001.4 mb 0.00 in0.0 mm 0.00 in/hr0.0 mm/hr 0.00 in0.0 mm
01:50 PM 63.3°F17.4°C 42.8°F6.0°C 47% 12.3 mph NW19.8 kmh NW 16.8 mph27.0 kmh 29.57 in1001.4 mb 0.00 in0.0 mm 0.00 in/hr0.0 mm/hr 0.00 in0.0 mm
01:45 PM 62.4°F16.9°C 42.5°F5.8°C 48% 14.0 mph W22.5 kmh W 19.0 mph30.6 kmh 29.57 in1001.4 mb 0.00 in0.0 mm 0.00 in/hr0.0 mm/hr 0.00 in0.0 mm
01:40 PM 62.6°F17.0°C 42.1°F5.6°C 47% 13.2 mph WSW21.2 kmh WSW 19.0 mph30.6 kmh 29.57 in1001.4 mb 0.00 in0.0 mm 0.00 in/hr0.0 mm/hr 0.00 in0.0 mm
01:35 PM 62.4°F16.9°C 41.9°F5.5°C 47% 11.6 mph W18.7 kmh W 13.6 mph21.9 kmh 29.58 in1001.7 mb 0.00 in0.0 mm 0.00 in/hr0.0 mm/hr 0.00 in0.0 mm
01:30 PM 62.1°F16.7°C 42.2°F5.7°C 48% 13.8 mph NW22.2 kmh NW 16.8 mph27.0 kmh 29.58 in1001.7 mb 0.00 in0.0 mm 0.00 in/hr0.0 mm/hr 0.00 in0.0 mm
01:25 PM 61.7°F16.5°C 42.4°F5.8°C 49% 15.8 mph NW25.4 kmh NW 17.4 mph28.0 kmh 29.58 in1001.7 mb 0.00 in0.0 mm 0.00 in/hr0.0 mm/hr 0.00 in0.0 mm
01:20 PM 61.2°F16.2°C 41.3°F5.2°C 48% 13.5 mph W21.7 kmh W 17.4 mph28.0 kmh 29.58 in1001.7 mb 0.00 in0.0 mm 0.00 in/hr0.0 mm/hr 0.00 in0.0 mm
01:15 PM 62.1°F16.7°C 41.6°F5.3°C 47% 12.6 mph W20.3 kmh W 15.2 mph24.5 kmh 29.58 in1001.7 mb 0.00 in0.0 mm 0.00 in/hr0.0 mm/hr 0.00 in0.0 mm
01:10 PM 61.9°F16.6°C 43.1°F6.2°C 50% 14.3 mph E23.0 kmh E 15.2 mph24.5 kmh 29.59 in1002.0 mb 0.00 in0.0 mm 0.00 in/hr0.0 mm/hr 0.00 in0.0 mm
01:05 PM 61.0°F16.1°C 41.7°F5.4°C 49% 15.6 mph ENE25.1 kmh ENE 18.3 mph29.5 kmh 29.59 in1002.0 mb 0.00 in0.0 mm 0.00 in/hr0.0 mm/hr 0.00 in0.0 mm
01:00 PM 61.0°F16.1°C 41.7°F5.4°C 49% 13.6 mph NW21.9 kmh NW 18.3 mph29.5 kmh 29.59 in1002.0 mb 0.00 in0.0 mm 0.00 in/hr0.0 mm/hr 0.00 in0.0 mm
12:55 PM 61.3°F16.3°C 42.0°F5.6°C 49% 10.3 mph NW16.6 kmh NW 15.2 mph24.5 kmh 29.59 in1002.0 mb 0.00 in0.0 mm 0.00 in/hr0.0 mm/hr 0.00 in0.0 mm
12:50 PM 61.0°F16.1°C 41.7°F5.4°C 49% 10.4 mph W16.7 kmh W 15.9 mph25.6 kmh 29.60 in1002.4 mb 0.00 in0.0 mm 0.00 in/hr0.0 mm/hr 0.00 in0.0 mm
12:45 PM 60.1°F15.6°C 41.9°F5.5°C 51% 11.6 mph WSW18.7 kmh WSW 17.4 mph28.0 kmh 29.60 in1002.4 mb 0.00 in0.0 mm 0.00 in/hr0.0 mm/hr 0.00 in0.0 mm
12:40 PM 59.9°F15.5°C 41.2°F5.1°C 50% 12.0 mph W19.3 kmh W 17.4 mph28.0 kmh 29.61 in1002.7 mb 0.00 in0.0 mm 0.00 in/hr0.0 mm/hr 0.00 in0.0 mm
12:35 PM 59.4°F15.2°C 41.2°F5.1°C 51% 12.7 mph W20.4 kmh W 16.8 mph27.0 kmh 29.61 in1002.7 mb 0.00 in0.0 mm 0.00 in/hr0.0 mm/hr 0.00 in0.0 mm
12:30 PM 59.0°F15.0°C 40.4°F4.7°C 50% 12.6 mph W20.3 kmh W 16.8 mph27.0 kmh 29.61 in1002.7 mb 0.00 in0.0 mm 0.00 in/hr0.0 mm/hr 0.00 in0.0 mm
12:25 PM 59.0°F15.0°C 40.9°F4.9°C 51% 11.1 mph WNW17.9 kmh WNW 13.6 mph21.9 kmh 29.61 in1002.7 mb 0.00 in0.0 mm 0.00 in/hr0.0 mm/hr 0.00 in0.0 mm
12:20 PM 58.6°F14.8°C 41.1°F5.1°C 52% 11.4 mph W18.3 kmh W 13.6 mph21.9 kmh 29.62 in1003.0 mb 0.00 in0.0 mm 0.00 in/hr0.0 mm/hr 0.00 in0.0 mm
12:15 PM 58.6°F14.8°C 41.1°F5.1°C 52% 10.1 mph WNW16.3 kmh WNW 13.6 mph21.9 kmh 29.62 in1003.0 mb 0.00 in0.0 mm 0.00 in/hr0.0 mm/hr 0.00 in0.0 mm
12:10 PM 59.2°F15.1°C 41.1°F5.1°C 51% 8.1 mph NNW13.0 kmh NNW 12.1 mph19.5 kmh 29.63 in1003.4 mb 0.00 in0.0 mm 0.00 in/hr0.0 mm/hr 0.00 in0.0 mm
12:05 PM 58.6°F14.8°C 41.6°F5.3°C 53% 8.2 mph N13.2 kmh N 8.3 mph13.4 kmh 29.63 in1003.4 mb 0.00 in0.0 mm 0.00 in/hr0.0 mm/hr 0.00 in0.0 mm
12:00 PM 58.6°F14.8°C 41.6°F5.3°C 53% 7.9 mph NNW12.7 kmh NNW 17.4 mph28.0 kmh 29.64 in1003.7 mb 0.00 in0.0 mm 0.00 in/hr0.0 mm/hr 0.00 in0.0 mm
11:55 AM 58.1°F14.5°C 41.1°F5.1°C 53% 10.7 mph NW17.2 kmh NW 17.4 mph28.0 kmh 29.64 in1003.7 mb 0.00 in0.0 mm 0.00 in/hr0.0 mm/hr 0.00 in0.0 mm
11:50 AM 57.4°F14.1°C 39.9°F4.4°C 52% 10.8 mph WNW17.4 kmh WNW 17.4 mph28.0 kmh 29.64 in1003.7 mb 0.00 in0.0 mm 0.00 in/hr0.0 mm/hr 0.00 in0.0 mm
11:45 AM 58.1°F14.5°C 40.6°F4.8°C 52% 8.2 mph NW13.2 kmh NW 13.0 mph20.9 kmh 29.64 in1003.7 mb 0.00 in0.0 mm 0.00 in/hr0.0 mm/hr 0.00 in0.0 mm
11:40 AM 57.9°F14.4°C 41.9°F5.5°C 55% 9.2 mph NW14.8 kmh NW 13.0 mph20.9 kmh 29.64 in1003.7 mb 0.00 in0.0 mm 0.00 in/hr0.0 mm/hr 0.00 in0.0 mm
11:35 AM 57.0°F13.9°C 40.5°F4.7°C 54% 9.8 mph W15.8 kmh W 13.6 mph21.9 kmh 29.64 in1003.7 mb 0.00 in0.0 mm 0.00 in/hr0.0 mm/hr 0.00 in0.0 mm
11:30 AM 56.8°F13.8°C 40.9°F4.9°C 55% 9.8 mph W15.8 kmh W 15.2 mph24.5 kmh 29.65 in1004.1 mb 0.00 in0.0 mm 0.00 in/hr0.0 mm/hr 0.00 in0.0 mm
11:25 AM 57.4°F14.1°C 40.4°F4.7°C 53% 8.7 mph W14.0 kmh W 15.2 mph24.5 kmh 29.66 in1004.4 mb 0.00 in0.0 mm 0.00 in/hr0.0 mm/hr 0.00 in0.0 mm
11:20 AM 57.6°F14.2°C 40.6°F4.8°C 53% 9.5 mph NW15.3 kmh NW 15.2 mph24.5 kmh 29.66 in1004.4 mb 0.00 in0.0 mm 0.00 in/hr0.0 mm/hr 0.00 in0.0 mm
11:15 AM 56.3°F13.5°C 40.4°F4.7°C 55% 10.0 mph WNW16.1 kmh WNW 15.2 mph24.5 kmh 29.66 in1004.4 mb 0.00 in0.0 mm 0.00 in/hr0.0 mm/hr 0.00 in0.0 mm
11:10 AM 57.0°F13.9°C 41.0°F5.0°C 55% 8.4 mph W13.5 kmh W 12.1 mph19.5 kmh 29.66 in1004.4 mb 0.00 in0.0 mm 0.00 in/hr0.0 mm/hr 0.00 in0.0 mm
11:05 AM 55.0°F12.8°C 40.1°F4.5°C 57% 10.3 mph W16.6 kmh W 15.9 mph25.6 kmh 29.67 in1004.7 mb 0.00 in0.0 mm 0.00 in/hr0.0 mm/hr 0.00 in0.0 mm
11:00 AM 55.0°F12.8°C 40.1°F4.5°C 57% 11.1 mph WNW17.9 kmh WNW 15.9 mph25.6 kmh 29.67 in1004.7 mb 0.00 in0.0 mm 0.00 in/hr0.0 mm/hr 0.00 in0.0 mm
10:55 AM 55.2°F12.9°C 40.3°F4.6°C 57% 10.7 mph W17.2 kmh W 15.2 mph24.5 kmh 29.67 in1004.7 mb 0.00 in0.0 mm 0.00 in/hr0.0 mm/hr 0.00 in0.0 mm
10:50 AM 54.9°F12.7°C 39.5°F4.2°C 56% 10.8 mph W17.4 kmh W 15.2 mph24.5 kmh 29.67 in1004.7 mb 0.00 in0.0 mm 0.00 in/hr0.0 mm/hr 0.00 in0.0 mm
10:45 AM 55.2°F12.9°C 40.3°F4.6°C 57% 9.5 mph W15.3 kmh W 15.2 mph24.5 kmh 29.68 in1005.1 mb 0.00 in0.0 mm 0.00 in/hr0.0 mm/hr 0.00 in0.0 mm
10:40 AM 55.0°F12.8°C 40.5°F4.7°C 58% 9.0 mph WNW14.5 kmh WNW 10.7 mph17.2 kmh 29.68 in1005.1 mb 0.00 in0.0 mm 0.00 in/hr0.0 mm/hr 0.00 in0.0 mm
10:35 AM 54.9°F12.7°C 40.8°F4.9°C 59% 9.5 mph NW15.3 kmh NW 10.7 mph17.2 kmh 29.68 in1005.1 mb 0.00 in0.0 mm 0.00 in/hr0.0 mm/hr 0.00 in0.0 mm
10:30 AM 54.1°F12.3°C 40.6°F4.8°C 60% 9.3 mph NW15.0 kmh NW 16.8 mph27.0 kmh 29.68 in1005.1 mb 0.00 in0.0 mm 0.00 in/hr0.0 mm/hr 0.00 in0.0 mm
10:25 AM 54.3°F12.4°C 40.3°F4.6°C 59% 8.6 mph NW13.8 kmh NW 16.8 mph27.0 kmh 29.69 in1005.4 mb 0.00 in0.0 mm 0.00 in/hr0.0 mm/hr 0.00 in0.0 mm
10:20 AM 54.0°F12.2°C 40.4°F4.7°C 60% 9.2 mph WNW14.8 kmh WNW 14.5 mph23.3 kmh 29.69 in1005.4 mb 0.00 in0.0 mm 0.00 in/hr0.0 mm/hr 0.00 in0.0 mm
10:15 AM 54.3°F12.4°C 40.7°F4.8°C 60% 10.1 mph WSW16.3 kmh WSW 14.5 mph23.3 kmh 29.69 in1005.4 mb 0.00 in0.0 mm 0.00 in/hr0.0 mm/hr 0.00 in0.0 mm
10:10 AM 54.1°F12.3°C 41.0°F5.0°C 61% 11.6 mph SW18.7 kmh SW 13.0 mph20.9 kmh 29.68 in1005.1 mb 0.00 in0.0 mm 0.00 in/hr0.0 mm/hr 0.00 in0.0 mm
10:05 AM 52.0°F11.1°C 40.6°F4.8°C 65% 12.8 mph WSW20.6 kmh WSW 15.2 mph24.5 kmh 29.68 in1005.1 mb 0.00 in0.0 mm 0.00 in/hr0.0 mm/hr 0.00 in0.0 mm
10:00 AM 52.0°F11.1°C 40.6°F4.8°C 65% 11.8 mph W19.0 kmh W 15.2 mph24.5 kmh 29.68 in1005.1 mb 0.00 in0.0 mm 0.00 in/hr0.0 mm/hr 0.00 in0.0 mm
09:55 AM 52.3°F11.3°C 40.5°F4.7°C 64% 11.3 mph W18.2 kmh W 15.9 mph25.6 kmh 29.69 in1005.4 mb 0.00 in0.0 mm 0.00 in/hr0.0 mm/hr 0.00 in0.0 mm
09:50 AM 52.2°F11.2°C 40.8°F4.9°C 65% 10.2 mph W16.4 kmh W 15.9 mph25.6 kmh 29.69 in1005.4 mb 0.00 in0.0 mm 0.00 in/hr0.0 mm/hr 0.00 in0.0 mm
09:45 AM 52.3°F11.3°C 40.9°F4.9°C 65% 9.8 mph W15.8 kmh W 15.9 mph25.6 kmh 29.68 in1005.1 mb 0.00 in0.0 mm 0.00 in/hr0.0 mm/hr 0.00 in0.0 mm
09:40 AM 50.9°F10.5°C 41.1°F5.1°C 69% 10.7 mph W17.2 kmh W 13.0 mph20.9 kmh 29.68 in1005.1 mb 0.00 in0.0 mm 0.00 in/hr0.0 mm/hr 0.00 in0.0 mm
09:35 AM 50.9°F10.5°C 41.1°F5.1°C 69% 10.6 mph WNW17.1 kmh WNW 13.0 mph20.9 kmh 29.68 in1005.1 mb 0.00 in0.0 mm 0.00 in/hr0.0 mm/hr 0.00 in0.0 mm
09:30 AM 50.9°F10.5°C 41.1°F5.1°C 69% 9.5 mph NW15.3 kmh NW 13.0 mph20.9 kmh 29.68 in1005.1 mb 0.00 in0.0 mm 0.00 in/hr0.0 mm/hr 0.00 in0.0 mm
09:25 AM 51.1°F10.6°C 41.3°F5.2°C 69% 7.6 mph W12.2 kmh W 13.0 mph20.9 kmh 29.68 in1005.1 mb 0.00 in0.0 mm 0.00 in/hr0.0 mm/hr 0.00 in0.0 mm
09:20 AM 50.9°F10.5°C 42.2°F5.7°C 72% 7.8 mph W12.6 kmh W 13.6 mph21.9 kmh 29.68 in1005.1 mb 0.00 in0.0 mm 0.00 in/hr0.0 mm/hr 0.00 in0.0 mm
09:15 AM 49.8°F9.9°C 41.9°F5.5°C 74% 9.9 mph W15.9 kmh W 13.6 mph21.9 kmh 29.68 in1005.1 mb 0.00 in0.0 mm 0.00 in/hr0.0 mm/hr 0.00 in0.0 mm
09:10 AM 49.3°F9.6°C 41.0°F5.0°C 73% 11.1 mph NW17.9 kmh NW 11.4 mph18.3 kmh 29.68 in1005.1 mb 0.00 in0.0 mm 0.00 in/hr0.0 mm/hr 0.00 in0.0 mm
09:05 AM 49.1°F9.5°C 41.2°F5.1°C 74% 10.6 mph NW17.1 kmh NW 11.4 mph18.3 kmh 29.68 in1005.1 mb 0.00 in0.0 mm 0.00 in/hr0.0 mm/hr 0.00 in0.0 mm
09:00 AM 49.1°F9.5°C 41.2°F5.1°C 74% 9.2 mph WNW14.8 kmh WNW 11.4 mph18.3 kmh 29.68 in1005.1 mb 0.00 in0.0 mm 0.00 in/hr0.0 mm/hr 0.00 in0.0 mm
08:55 AM 48.6°F9.2°C 41.7°F5.4°C 77% 8.4 mph W13.5 kmh W 12.1 mph19.5 kmh 29.68 in1005.1 mb 0.00 in0.0 mm 0.00 in/hr0.0 mm/hr 0.00 in0.0 mm
08:50 AM 48.2°F9.0°C 41.3°F5.2°C 77% 8.3 mph W13.4 kmh W 12.1 mph19.5 kmh 29.68 in1005.1 mb 0.00 in0.0 mm 0.00 in/hr0.0 mm/hr 0.00 in0.0 mm
08:45 AM 47.8°F8.8°C 41.3°F5.2°C 78% 8.0 mph NW12.9 kmh NW 13.6 mph21.9 kmh 29.67 in1004.7 mb 0.00 in0.0 mm 0.00 in/hr0.0 mm/hr 0.00 in0.0 mm
08:40 AM 47.1°F8.4°C 40.9°F4.9°C 79% 8.2 mph WNW13.2 kmh WNW 13.6 mph21.9 kmh 29.67 in1004.7 mb 0.00 in0.0 mm 0.00 in/hr0.0 mm/hr 0.00 in0.0 mm
08:35 AM 46.8°F8.2°C 40.9°F4.9°C 80% 8.1 mph W13.0 kmh W 13.6 mph21.9 kmh 29.67 in1004.7 mb 0.00 in0.0 mm 0.00 in/hr0.0 mm/hr 0.00 in0.0 mm
08:30 AM 46.6°F8.1°C 41.4°F5.2°C 82% 7.2 mph WNW11.6 kmh WNW 9.8 mph15.8 kmh 29.67 in1004.7 mb 0.00 in0.0 mm 0.00 in/hr0.0 mm/hr 0.00 in0.0 mm
08:25 AM 45.9°F7.7°C 41.3°F5.2°C 84% 7.4 mph W11.9 kmh W 8.3 mph13.4 kmh 29.67 in1004.7 mb 0.00 in0.0 mm 0.00 in/hr0.0 mm/hr 0.00 in0.0 mm
08:20 AM 44.1°F6.7°C 40.7°F4.8°C 88% 7.9 mph W12.7 kmh W 8.3 mph13.4 kmh 29.66 in1004.4 mb 0.00 in0.0 mm 0.00 in/hr0.0 mm/hr 0.00 in0.0 mm
08:15 AM 44.1°F6.7°C 40.7°F4.8°C 88% 7.9 mph W12.7 kmh W 9.2 mph14.8 kmh 29.66 in1004.4 mb 0.00 in0.0 mm 0.00 in/hr0.0 mm/hr 0.00 in0.0 mm
08:10 AM 43.0°F6.1°C 40.5°F4.7°C 91% 7.3 mph W11.7 kmh W 9.2 mph14.8 kmh 29.66 in1004.4 mb 0.00 in0.0 mm 0.00 in/hr0.0 mm/hr 0.00 in0.0 mm
08:05 AM 42.1°F5.6°C 40.2°F4.6°C 93% 5.1 mph W8.2 kmh W 9.2 mph14.8 kmh 29.66 in1004.4 mb 0.00 in0.0 mm 0.00 in/hr0.0 mm/hr 0.00 in0.0 mm
08:00 AM 41.2°F5.1°C 39.9°F4.4°C 95% 3.7 mph WSW6.0 kmh WSW 6.9 mph11.1 kmh 29.66 in1004.4 mb 0.00 in0.0 mm 0.00 in/hr0.0 mm/hr 0.00 in0.0 mm
07:55 AM 40.5°F4.7°C 39.7°F4.3°C 97% 3.7 mph WSW6.0 kmh WSW 6.9 mph11.1 kmh 29.66 in1004.4 mb 0.00 in0.0 mm 0.00 in/hr0.0 mm/hr 0.00 in0.0 mm
07:50 AM 39.7°F4.3°C 39.2°F4.0°C 98% 3.8 mph WSW6.1 kmh WSW 5.4 mph8.7 kmh 29.65 in1004.1 mb 0.00 in0.0 mm 0.00 in/hr0.0 mm/hr 0.00 in0.0 mm
07:45 AM 39.4°F4.1°C 38.9°F3.8°C 98% 3.7 mph W6.0 kmh W 5.4 mph8.7 kmh 29.66 in1004.4 mb 0.00 in0.0 mm 0.00 in/hr0.0 mm/hr 0.00 in0.0 mm
07:40 AM 38.8°F3.8°C 38.3°F3.5°C 98% 3.1 mph WNW5.0 kmh WNW 5.4 mph8.7 kmh 29.66 in1004.4 mb 0.00 in0.0 mm 0.00 in/hr0.0 mm/hr 0.00 in0.0 mm
07:35 AM 38.7°F3.7°C 38.1°F3.4°C 98% 2.5 mph WSW4.0 kmh WSW 3.8 mph6.1 kmh 29.65 in1004.1 mb 0.00 in0.0 mm 0.00 in/hr0.0 mm/hr 0.00 in0.0 mm
07:30 AM 38.7°F3.7°C 38.1°F3.4°C 98% 2.4 mph WSW3.9 kmh WSW 3.8 mph6.1 kmh 29.65 in1004.1 mb 0.00 in0.0 mm 0.00 in/hr0.0 mm/hr 0.00 in0.0 mm
07:25 AM 38.5°F3.6°C 38.0°F3.3°C 98% 2.1 mph WSW3.4 kmh WSW 3.1 mph5.0 kmh 29.65 in1004.1 mb 0.00 in0.0 mm 0.00 in/hr0.0 mm/hr 0.00 in0.0 mm
07:20 AM 38.1°F3.4°C 37.3°F2.9°C 97% 2.0 mph SW3.2 kmh SW 3.1 mph5.0 kmh 29.65 in1004.1 mb 0.00 in0.0 mm 0.00 in/hr0.0 mm/hr 0.00 in0.0 mm
07:15 AM 37.9°F3.3°C 36.9°F2.7°C 96% 1.7 mph SW2.7 kmh SW 3.1 mph5.0 kmh 29.65 in1004.1 mb 0.00 in0.0 mm 0.00 in/hr0.0 mm/hr 0.00 in0.0 mm
07:10 AM 37.9°F3.3°C 36.9°F2.7°C 96% 1.5 mph WSW2.4 kmh WSW 1.6 mph2.6 kmh 29.65 in1004.1 mb 0.00 in0.0 mm 0.00 in/hr0.0 mm/hr 0.00 in0.0 mm
07:05 AM 38.7°F3.7°C 37.4°F3.0°C 95% 1.5 mph SW2.4 kmh SW 2.2 mph3.5 kmh 29.65 in1004.1 mb 0.00 in0.0 mm 0.00 in/hr0.0 mm/hr 0.00 in0.0 mm
07:00 AM 38.7°F3.7°C 37.4°F3.0°C 95% 1.6 mph SSW2.6 kmh SSW 2.2 mph3.5 kmh 29.65 in1004.1 mb 0.00 in0.0 mm 0.00 in/hr0.0 mm/hr 0.00 in0.0 mm
06:55 AM 39.0°F3.9°C 37.2°F2.9°C 93% 1.9 mph WSW3.1 kmh WSW 3.8 mph6.1 kmh 29.65 in1004.1 mb 0.00 in0.0 mm 0.00 in/hr0.0 mm/hr 0.00 in0.0 mm
06:50 AM 39.4°F4.1°C 37.5°F3.1°C 93% 2.1 mph W3.4 kmh W 3.8 mph6.1 kmh 29.64 in1003.7 mb 0.00 in0.0 mm 0.00 in/hr0.0 mm/hr 0.00 in0.0 mm
06:45 AM 39.6°F4.2°C 37.4°F3.0°C 92% 2.9 mph W4.7 kmh W 5.4 mph8.7 kmh 29.65 in1004.1 mb 0.00 in0.0 mm 0.00 in/hr0.0 mm/hr 0.00 in0.0 mm
06:40 AM 39.7°F4.3°C 37.6°F3.1°C 92% 3.6 mph W5.8 kmh W 6.0 mph9.7 kmh 29.64 in1003.7 mb 0.00 in0.0 mm 0.00 in/hr0.0 mm/hr 0.00 in0.0 mm
06:35 AM 39.4°F4.1°C 37.3°F2.9°C 92% 3.0 mph W4.8 kmh W 6.0 mph9.7 kmh 29.64 in1003.7 mb 0.00 in0.0 mm 0.00 in/hr0.0 mm/hr 0.00 in0.0 mm
06:30 AM 39.6°F4.2°C 37.2°F2.9°C 91% 2.6 mph W4.2 kmh W 3.1 mph5.0 kmh 29.64 in1003.7 mb 0.00 in0.0 mm 0.00 in/hr0.0 mm/hr 0.00 in0.0 mm
06:25 AM 39.9°F4.4°C 37.5°F3.1°C 91% 3.1 mph W5.0 kmh W 3.8 mph6.1 kmh 29.64 in1003.7 mb 0.00 in0.0 mm 0.00 in/hr0.0 mm/hr 0.00 in0.0 mm
06:20 AM 39.9°F4.4°C 37.5°F3.1°C 91% 3.3 mph W5.3 kmh W 5.4 mph8.7 kmh 29.63 in1003.4 mb 0.00 in0.0 mm 0.00 in/hr0.0 mm/hr 0.00 in0.0 mm
06:15 AM 39.9°F4.4°C 37.5°F3.1°C 91% 3.3 mph W5.3 kmh W 5.4 mph8.7 kmh 29.63 in1003.4 mb 0.00 in0.0 mm 0.00 in/hr0.0 mm/hr 0.00 in0.0 mm
06:10 AM 39.9°F4.4°C 37.2°F2.9°C 90% 3.9 mph W6.3 kmh W 4.5 mph7.2 kmh 29.63 in1003.4 mb 0.00 in0.0 mm 0.00 in/hr0.0 mm/hr 0.00 in0.0 mm
06:05 AM 40.5°F4.7°C 37.5°F3.1°C 89% 4.1 mph WSW6.6 kmh WSW 5.4 mph8.7 kmh 29.63 in1003.4 mb 0.00 in0.0 mm 0.00 in/hr0.0 mm/hr 0.00 in0.0 mm
06:00 AM 40.5°F4.7°C 37.5°F3.1°C 89% 4.0 mph WSW6.4 kmh WSW 6.0 mph9.7 kmh 29.63 in1003.4 mb 0.00 in0.0 mm 0.00 in/hr0.0 mm/hr 0.00 in0.0 mm
05:55 AM 40.5°F4.7°C 37.5°F3.1°C 89% 3.5 mph W5.6 kmh W 6.0 mph9.7 kmh 29.64 in1003.7 mb 0.00 in0.0 mm 0.00 in/hr0.0 mm/hr 0.00 in0.0 mm
05:50 AM 40.5°F4.7°C 37.5°F3.1°C 89% 3.2 mph W5.1 kmh W 6.0 mph9.7 kmh 29.62 in1003.0 mb 0.00 in0.0 mm 0.00 in/hr0.0 mm/hr 0.00 in0.0 mm
05:45 AM 40.5°F4.7°C 37.5°F3.1°C 89% 3.6 mph WNW5.8 kmh WNW 6.9 mph11.1 kmh 29.62 in1003.0 mb 0.00 in0.0 mm 0.00 in/hr0.0 mm/hr 0.00 in0.0 mm
05:40 AM 40.3°F4.6°C 37.0°F2.8°C 88% 3.7 mph WNW6.0 kmh WNW 6.9 mph11.1 kmh 29.62 in1003.0 mb 0.00 in0.0 mm 0.00 in/hr0.0 mm/hr 0.00 in0.0 mm
05:35 AM 40.6°F4.8°C 37.4°F3.0°C 88% 4.0 mph WNW6.4 kmh WNW 6.0 mph9.7 kmh 29.62 in1003.0 mb 0.00 in0.0 mm 0.00 in/hr0.0 mm/hr 0.00 in0.0 mm
05:30 AM 40.6°F4.8°C 37.1°F2.8°C 87% 3.8 mph WNW6.1 kmh WNW 7.6 mph12.2 kmh 29.62 in1003.0 mb 0.00 in0.0 mm 0.00 in/hr0.0 mm/hr 0.00 in0.0 mm
05:25 AM 40.8°F4.9°C 37.5°F3.1°C 88% 4.1 mph NW6.6 kmh NW 7.6 mph12.2 kmh 29.63 in1003.4 mb 0.00 in0.0 mm 0.00 in/hr0.0 mm/hr 0.00 in0.0 mm
05:20 AM 40.8°F4.9°C 37.3°F2.9°C 87% 4.5 mph NW7.2 kmh NW 7.6 mph12.2 kmh 29.62 in1003.0 mb 0.00 in0.0 mm 0.00 in/hr0.0 mm/hr 0.00 in0.0 mm
05:15 AM 40.8°F4.9°C 37.3°F2.9°C 87% 4.1 mph WNW6.6 kmh WNW 5.4 mph8.7 kmh 29.62 in1003.0 mb 0.00 in0.0 mm 0.00 in/hr0.0 mm/hr 0.00 in0.0 mm
05:10 AM 41.0°F5.0°C 37.1°F2.8°C 86% 3.7 mph W6.0 kmh W 4.5 mph7.2 kmh 29.62 in1003.0 mb 0.00 in0.0 mm 0.00 in/hr0.0 mm/hr 0.00 in0.0 mm
05:05 AM 41.5°F5.3°C 37.4°F3.0°C 85% 4.2 mph WNW6.8 kmh WNW 6.0 mph9.7 kmh 29.62 in1003.0 mb 0.00 in0.0 mm 0.00 in/hr0.0 mm/hr 0.00 in0.0 mm
05:00 AM 41.5°F5.3°C 37.4°F3.0°C 85% 4.6 mph WNW7.4 kmh WNW 6.0 mph9.7 kmh 29.62 in1003.0 mb 0.00 in0.0 mm 0.00 in/hr0.0 mm/hr 0.00 in0.0 mm
04:55 AM 41.5°F5.3°C 37.4°F3.0°C 85% 4.7 mph W7.6 kmh W 6.9 mph11.1 kmh 29.63 in1003.4 mb 0.00 in0.0 mm 0.00 in/hr0.0 mm/hr 0.00 in0.0 mm
04:50 AM 41.5°F5.3°C 37.4°F3.0°C 85% 4.4 mph W7.1 kmh W 6.9 mph11.1 kmh 29.63 in1003.4 mb 0.00 in0.0 mm 0.00 in/hr0.0 mm/hr 0.00 in0.0 mm
04:45 AM 41.7°F5.4°C 37.2°F2.9°C 84% 4.4 mph W7.1 kmh W 7.6 mph12.2 kmh 29.63 in1003.4 mb 0.00 in0.0 mm 0.00 in/hr0.0 mm/hr 0.00 in0.0 mm
04:40 AM 41.9°F5.5°C 37.4°F3.0°C 84% 5.0 mph W8.0 kmh W 7.6 mph12.2 kmh 29.63 in1003.4 mb 0.00 in0.0 mm 0.00 in/hr0.0 mm/hr 0.00 in0.0 mm
04:35 AM 42.1°F5.6°C 37.3°F2.9°C 83% 5.0 mph W8.0 kmh W 9.2 mph14.8 kmh 29.63 in1003.4 mb 0.00 in0.0 mm 0.00 in/hr0.0 mm/hr 0.00 in0.0 mm
04:30 AM 42.3°F5.7°C 37.5°F3.1°C 83% 5.9 mph WNW9.5 kmh WNW 12.1 mph19.5 kmh 29.64 in1003.7 mb 0.00 in0.0 mm 0.00 in/hr0.0 mm/hr 0.00 in0.0 mm
04:25 AM 42.4°F5.8°C 37.3°F2.9°C 82% 7.1 mph WNW11.4 kmh WNW 12.1 mph19.5 kmh 29.64 in1003.7 mb 0.00 in0.0 mm 0.00 in/hr0.0 mm/hr 0.00 in0.0 mm
04:20 AM 42.4°F5.8°C 37.3°F2.9°C 82% 7.7 mph WSW12.4 kmh WSW 11.4 mph18.3 kmh 29.64 in1003.7 mb 0.00 in0.0 mm 0.00 in/hr0.0 mm/hr 0.00 in0.0 mm
04:15 AM 42.6°F5.9°C 37.5°F3.1°C 82% 7.6 mph WNW12.2 kmh WNW 11.4 mph18.3 kmh 29.64 in1003.7 mb 0.00 in0.0 mm 0.00 in/hr0.0 mm/hr 0.00 in0.0 mm
04:10 AM 42.6°F5.9°C 37.5°F3.1°C 82% 7.3 mph NW11.7 kmh NW 8.3 mph13.4 kmh 29.64 in1003.7 mb 0.00 in0.0 mm 0.00 in/hr0.0 mm/hr 0.00 in0.0 mm
04:05 AM 42.6°F5.9°C 37.2°F2.9°C 81% 7.2 mph NW11.6 kmh NW 10.7 mph17.2 kmh 29.64 in1003.7 mb 0.00 in0.0 mm 0.00 in/hr0.0 mm/hr 0.00 in0.0 mm
04:00 AM 42.6°F5.9°C 37.2°F2.9°C 81% 7.1 mph WNW11.4 kmh WNW 10.7 mph17.2 kmh 29.64 in1003.7 mb 0.00 in0.0 mm 0.00 in/hr0.0 mm/hr 0.00 in0.0 mm
03:55 AM 42.6°F5.9°C 37.5°F3.1°C 82% 7.4 mph WNW11.9 kmh WNW 12.1 mph19.5 kmh 29.64 in1003.7 mb 0.00 in0.0 mm 0.00 in/hr0.0 mm/hr 0.00 in0.0 mm
03:50 AM 42.8°F6.0°C 37.4°F3.0°C 81% 7.5 mph NW12.1 kmh NW 12.1 mph19.5 kmh 29.64 in1003.7 mb 0.00 in0.0 mm 0.00 in/hr0.0 mm/hr 0.00 in0.0 mm
03:45 AM 42.6°F5.9°C 37.2°F2.9°C 81% 7.1 mph WNW11.4 kmh WNW 12.1 mph19.5 kmh 29.63 in1003.4 mb 0.00 in0.0 mm 0.00 in/hr0.0 mm/hr 0.00 in0.0 mm
03:40 AM 42.8°F6.0°C 37.4°F3.0°C 81% 7.3 mph W11.7 kmh W 12.1 mph19.5 kmh 29.64 in1003.7 mb 0.00 in0.0 mm 0.00 in/hr0.0 mm/hr 0.00 in0.0 mm
03:35 AM 42.8°F6.0°C 37.4°F3.0°C 81% 7.7 mph WNW12.4 kmh WNW 12.1 mph19.5 kmh 29.64 in1003.7 mb 0.00 in0.0 mm 0.00 in/hr0.0 mm/hr 0.00 in0.0 mm
03:30 AM 42.8°F6.0°C 37.1°F2.8°C 80% 7.7 mph NW12.4 kmh NW 11.4 mph18.3 kmh 29.64 in1003.7 mb 0.00 in0.0 mm 0.00 in/hr0.0 mm/hr 0.00 in0.0 mm
03:25 AM 43.2°F6.2°C 37.4°F3.0°C 80% 7.9 mph NW12.7 kmh NW 11.4 mph18.3 kmh 29.64 in1003.7 mb 0.00 in0.0 mm 0.00 in/hr0.0 mm/hr 0.00 in0.0 mm
03:20 AM 43.0°F6.1°C 37.2°F2.9°C 80% 8.7 mph NW14.0 kmh NW 15.9 mph25.6 kmh 29.63 in1003.4 mb 0.00 in0.0 mm 0.00 in/hr0.0 mm/hr 0.00 in0.0 mm
03:15 AM 43.2°F6.2°C 37.4°F3.0°C 80% 9.8 mph NW15.8 kmh NW 15.9 mph25.6 kmh 29.64 in1003.7 mb 0.00 in0.0 mm 0.00 in/hr0.0 mm/hr 0.00 in0.0 mm
03:10 AM 43.3°F6.3°C 37.6°F3.1°C 80% 10.5 mph NW16.9 kmh NW 11.4 mph18.3 kmh 29.64 in1003.7 mb 0.00 in0.0 mm 0.00 in/hr0.0 mm/hr 0.00 in0.0 mm
03:05 AM 43.2°F6.2°C 37.4°F3.0°C 80% 10.0 mph NW16.1 kmh NW 12.1 mph19.5 kmh 29.63 in1003.4 mb 0.00 in0.0 mm 0.00 in/hr0.0 mm/hr 0.00 in0.0 mm
03:00 AM 43.2°F6.2°C 37.4°F3.0°C 80% 8.4 mph NW13.5 kmh NW 12.1 mph19.5 kmh 29.63 in1003.4 mb 0.00 in0.0 mm 0.00 in/hr0.0 mm/hr 0.00 in0.0 mm
02:55 AM 43.3°F6.3°C 37.6°F3.1°C 80% 8.2 mph NW13.2 kmh NW 13.6 mph21.9 kmh 29.63 in1003.4 mb 0.00 in0.0 mm 0.00 in/hr0.0 mm/hr 0.00 in0.0 mm
02:50 AM 43.2°F6.2°C 37.1°F2.8°C 79% 7.3 mph NW11.7 kmh NW 13.6 mph21.9 kmh 29.63 in1003.4 mb 0.00 in0.0 mm 0.00 in/hr0.0 mm/hr 0.00 in0.0 mm
02:45 AM 43.3°F6.3°C 37.3°F2.9°C 79% 7.2 mph NNW11.6 kmh NNW 10.7 mph17.2 kmh 29.63 in1003.4 mb 0.00 in0.0 mm 0.00 in/hr0.0 mm/hr 0.00 in0.0 mm
02:40 AM 43.5°F6.4°C 37.4°F3.0°C 79% 7.4 mph NW11.9 kmh NW 10.7 mph17.2 kmh 29.63 in1003.4 mb 0.00 in0.0 mm 0.00 in/hr0.0 mm/hr 0.00 in0.0 mm
02:35 AM 43.7°F6.5°C 37.3°F2.9°C 78% 8.2 mph WNW13.2 kmh WNW 13.6 mph21.9 kmh 29.63 in1003.4 mb 0.00 in0.0 mm 0.00 in/hr0.0 mm/hr 0.00 in0.0 mm
02:30 AM 43.7°F6.5°C 37.3°F2.9°C 78% 9.1 mph WNW14.6 kmh WNW 13.6 mph21.9 kmh 29.63 in1003.4 mb 0.00 in0.0 mm 0.00 in/hr0.0 mm/hr 0.00 in0.0 mm
02:25 AM 43.9°F6.6°C 37.5°F3.1°C 78% 8.4 mph WNW13.5 kmh WNW 11.4 mph18.3 kmh 29.63 in1003.4 mb 0.00 in0.0 mm 0.00 in/hr0.0 mm/hr 0.00 in0.0 mm
02:20 AM 43.7°F6.5°C 37.3°F2.9°C 78% 7.9 mph WNW12.7 kmh WNW 11.4 mph18.3 kmh 29.63 in1003.4 mb 0.00 in0.0 mm 0.00 in/hr0.0 mm/hr 0.00 in0.0 mm
02:15 AM 44.1°F6.7°C 37.6°F3.1°C 78% 7.7 mph W12.4 kmh W 10.7 mph17.2 kmh 29.63 in1003.4 mb 0.00 in0.0 mm 0.00 in/hr0.0 mm/hr 0.00 in0.0 mm
02:10 AM 44.1°F6.7°C 37.6°F3.1°C 78% 7.4 mph W11.9 kmh W 10.7 mph17.2 kmh 29.63 in1003.4 mb 0.00 in0.0 mm 0.00 in/hr0.0 mm/hr 0.00 in0.0 mm
02:05 AM 44.1°F6.7°C 37.6°F3.1°C 78% 8.2 mph W13.2 kmh W 15.9 mph25.6 kmh 29.63 in1003.4 mb 0.00 in0.0 mm 0.00 in/hr0.0 mm/hr 0.00 in0.0 mm
02:00 AM 44.1°F6.7°C 37.6°F3.1°C 78% 9.4 mph WNW15.1 kmh WNW 15.9 mph25.6 kmh 29.63 in1003.4 mb 0.00 in0.0 mm 0.00 in/hr0.0 mm/hr 0.00 in0.0 mm
01:55 AM 44.1°F6.7°C 37.6°F3.1°C 78% 8.5 mph NW13.7 kmh NW 15.2 mph24.5 kmh 29.63 in1003.4 mb 0.00 in0.0 mm 0.00 in/hr0.0 mm/hr 0.00 in0.0 mm
01:50 AM 44.1°F6.7°C 37.6°F3.1°C 78% 8.2 mph NW13.2 kmh NW 12.1 mph19.5 kmh 29.62 in1003.0 mb 0.00 in0.0 mm 0.00 in/hr0.0 mm/hr 0.00 in0.0 mm
01:45 AM 44.2°F6.8°C 37.8°F3.2°C 78% 9.8 mph NW15.8 kmh NW 17.4 mph28.0 kmh 29.63 in1003.4 mb 0.00 in0.0 mm 0.00 in/hr0.0 mm/hr 0.00 in0.0 mm
01:40 AM 44.2°F6.8°C 37.5°F3.1°C 77% 10.1 mph NW16.3 kmh NW 17.4 mph28.0 kmh 29.63 in1003.4 mb 0.00 in0.0 mm 0.00 in/hr0.0 mm/hr 0.00 in0.0 mm
01:35 AM 44.4°F6.9°C 37.7°F3.2°C 77% 10.7 mph N17.2 kmh N 15.9 mph25.6 kmh 29.63 in1003.4 mb 0.00 in0.0 mm 0.00 in/hr0.0 mm/hr 0.00 in0.0 mm
01:30 AM 44.4°F6.9°C 37.3°F2.9°C 76% 10.8 mph NW17.4 kmh NW 15.9 mph25.6 kmh 29.63 in1003.4 mb 0.00 in0.0 mm 0.00 in/hr0.0 mm/hr 0.00 in0.0 mm
01:25 AM 44.6°F7.0°C 37.5°F3.1°C 76% 8.7 mph NW14.0 kmh NW 12.1 mph19.5 kmh 29.63 in1003.4 mb 0.00 in0.0 mm 0.00 in/hr0.0 mm/hr 0.00 in0.0 mm
01:20 AM 44.6°F7.0°C 37.5°F3.1°C 76% 8.3 mph NW13.4 kmh NW 12.1 mph19.5 kmh 29.63 in1003.4 mb 0.00 in0.0 mm 0.00 in/hr0.0 mm/hr 0.00 in0.0 mm
01:15 AM 44.8°F7.1°C 37.3°F2.9°C 75% 9.6 mph WNW15.4 kmh WNW 13.6 mph21.9 kmh 29.62 in1003.0 mb 0.00 in0.0 mm 0.00 in/hr0.0 mm/hr 0.00 in0.0 mm
01:10 AM 44.8°F7.1°C 37.3°F2.9°C 75% 10.8 mph W17.4 kmh W 13.6 mph21.9 kmh 29.62 in1003.0 mb 0.00 in0.0 mm 0.00 in/hr0.0 mm/hr 0.00 in0.0 mm
01:05 AM 45.0°F7.2°C 37.2°F2.9°C 74% 10.9 mph WNW17.5 kmh WNW 16.8 mph27.0 kmh 29.61 in1002.7 mb 0.00 in0.0 mm 0.00 in/hr0.0 mm/hr 0.00 in0.0 mm
01:00 AM 45.0°F7.2°C 37.2°F2.9°C 74% 10.6 mph NW17.1 kmh NW 16.8 mph27.0 kmh 29.62 in1003.0 mb 0.00 in0.0 mm 0.00 in/hr0.0 mm/hr 0.00 in0.0 mm
12:55 AM 45.1°F7.3°C 37.4°F3.0°C 74% 10.4 mph NW16.7 kmh NW 16.8 mph27.0 kmh 29.61 in1002.7 mb 0.00 in0.0 mm 0.00 in/hr0.0 mm/hr 0.00 in0.0 mm
12:50 AM 45.1°F7.3°C 37.4°F3.0°C 74% 11.4 mph NW18.3 kmh NW 17.4 mph28.0 kmh 29.62 in1003.0 mb 0.00 in0.0 mm 0.00 in/hr0.0 mm/hr 0.00 in0.0 mm
12:45 AM 45.1°F7.3°C 37.4°F3.0°C 74% 10.4 mph NW16.7 kmh NW 17.4 mph28.0 kmh 29.62 in1003.0 mb 0.00 in0.0 mm 0.00 in/hr0.0 mm/hr 0.00 in0.0 mm
12:40 AM 45.3°F7.4°C 37.5°F3.1°C 74% 10.1 mph NW16.3 kmh NW 16.8 mph27.0 kmh 29.62 in1003.0 mb 0.00 in0.0 mm 0.00 in/hr0.0 mm/hr 0.00 in0.0 mm
12:35 AM 45.5°F7.5°C 37.7°F3.2°C 74% 12.8 mph NW20.6 kmh NW 18.3 mph29.5 kmh 29.62 in1003.0 mb 0.00 in0.0 mm 0.00 in/hr0.0 mm/hr 0.00 in0.0 mm
12:30 AM 45.7°F7.6°C 37.9°F3.3°C 74% 12.8 mph NW20.6 kmh NW 18.3 mph29.5 kmh 29.62 in1003.0 mb 0.00 in0.0 mm 0.00 in/hr0.0 mm/hr 0.00 in0.0 mm
12:25 AM 45.7°F7.6°C 37.9°F3.3°C 74% 12.4 mph NW20.0 kmh NW 21.3 mph34.3 kmh 29.62 in1003.0 mb 0.00 in0.0 mm 0.00 in/hr0.0 mm/hr 0.00 in0.0 mm
12:20 AM 45.9°F7.7°C 38.1°F3.4°C 74% 11.4 mph NW18.3 kmh NW 21.3 mph34.3 kmh 29.62 in1003.0 mb 0.00 in0.0 mm 0.00 in/hr0.0 mm/hr 0.00 in0.0 mm
12:15 AM 46.0°F7.8°C 38.6°F3.7°C 75% 10.1 mph NW16.3 kmh NW 21.3 mph34.3 kmh 29.62 in1003.0 mb 0.00 in0.0 mm 0.00 in/hr0.0 mm/hr 0.00 in0.0 mm
12:10 AM 46.2°F7.9°C 38.7°F3.7°C 75% 9.0 mph NW14.5 kmh NW 13.0 mph20.9 kmh 29.62 in1003.0 mb 0.00 in0.0 mm 0.00 in/hr0.0 mm/hr 0.00 in0.0 mm
12:05 AM 46.4°F8.0°C 38.6°F3.7°C 74% 8.8 mph NW14.2 kmh NW 13.0 mph20.9 kmh 29.62 in1003.0 mb 0.00 in0.0 mm 0.00 in/hr0.0 mm/hr 0.00 in0.0 mm
12:00 AM 46.4°F8.0°C 38.6°F3.7°C 74% 10.7 mph NW17.2 kmh NW 16.8 mph27.0 kmh 29.62 in1003.0 mb 0.00 in0.0 mm 0.00 in/hr0.0 mm/hr 0.00 in0.0 mm